createdAt,value
2023-04-02T00:00:36.777Z,98391.00
2023-04-02T00:03:10.812Z,98392.00
2023-04-02T00:05:51.461Z,98389.00
2023-04-02T00:08:40.985Z,98402.00
2023-04-02T00:11:09.292Z,98408.00
2023-04-02T00:13:49.128Z,98403.00
2023-04-02T00:16:23.938Z,98400.00
2023-04-02T00:18:56.331Z,98405.00
2023-04-02T00:21:32.151Z,98407.00
2023-04-02T00:24:15.531Z,98417.00
2023-04-02T00:26:53.639Z,98417.00
2023-04-02T00:29:20.937Z,98411.00
2023-04-02T00:31:52.121Z,98410.00
2023-04-02T00:34:37.708Z,98411.00
2023-04-02T00:37:05.267Z,98402.00
2023-04-02T00:39:42.028Z,98404.00
2023-04-02T00:42:13.199Z,98400.00
2023-04-02T00:44:43.783Z,98413.00
2023-04-02T00:47:31.815Z,98408.00
2023-04-02T00:50:19.367Z,98404.00
2023-04-02T00:52:52.295Z,98391.00
2023-04-02T00:55:36.498Z,98398.00
2023-04-02T00:58:05.148Z,98393.00
2023-04-02T01:00:36.847Z,98404.00
2023-04-02T01:03:22.941Z,98400.00
2023-04-02T01:06:11.505Z,98407.00
2023-04-02T01:09:02.435Z,98410.00
2023-04-02T01:11:47.642Z,98402.00
2023-04-02T01:14:46.214Z,98409.00
2023-04-02T01:18:18.149Z,98412.00
2023-04-02T01:20:47.783Z,98407.00
2023-04-02T01:23:53.674Z,98409.00
2023-04-02T01:26:33.304Z,98411.00
2023-04-02T01:29:15.607Z,98415.00
2023-04-02T01:31:45.616Z,98419.00
2023-04-02T01:34:17.920Z,98424.00
2023-04-02T01:36:53.290Z,98420.00
2023-04-02T01:39:56.662Z,98420.00
2023-04-02T01:43:08.249Z,98417.00
2023-04-02T01:45:36.789Z,98424.00
2023-04-02T01:48:19.969Z,98423.00
2023-04-02T01:50:52.348Z,98426.00
2023-04-02T01:53:22.121Z,98420.00
2023-04-02T01:55:59.602Z,98429.00
2023-04-02T01:58:31.882Z,98431.00
2023-04-02T02:01:21.958Z,98430.00
2023-04-02T02:03:51.376Z,98437.00
2023-04-02T02:06:19.815Z,98437.00
2023-04-02T02:08:59.314Z,98430.00
2023-04-02T02:11:32.121Z,98431.00
2023-04-02T02:14:02.090Z,98435.00
2023-04-02T02:16:32.052Z,98433.00
2023-04-02T02:19:04.765Z,98432.00
2023-04-02T02:21:43.745Z,98442.00
2023-04-02T02:24:37.682Z,98446.00
2023-04-02T02:27:23.002Z,98447.00
2023-04-02T02:30:12.939Z,98453.00
2023-04-02T02:33:06.922Z,98454.00
2023-04-02T02:35:44.530Z,98448.00
2023-04-02T02:38:54.431Z,98456.00
2023-04-02T02:41:42.079Z,98453.00
2023-04-02T02:44:08.841Z,98458.00
2023-04-02T02:46:48.129Z,98457.00
2023-04-02T02:49:22.314Z,98458.00
2023-04-02T02:52:09.379Z,98466.00
2023-04-02T02:54:47.358Z,98466.00
2023-04-02T02:57:22.769Z,98469.00
2023-04-02T02:59:52.524Z,98464.00
2023-04-02T03:02:20.015Z,98461.00
2023-04-02T03:04:53.594Z,98471.00
2023-04-02T03:07:25.582Z,98482.00
2023-04-02T03:10:12.469Z,98477.00
2023-04-02T03:13:36.361Z,98482.00
2023-04-02T03:16:23.076Z,98483.00
2023-04-02T03:19:01.142Z,98477.00
2023-04-02T03:21:54.222Z,98484.00
2023-04-02T03:25:01.992Z,98482.00
2023-04-02T03:27:39.120Z,98478.00
2023-04-02T03:30:49.432Z,98485.00
2023-04-02T03:33:45.920Z,98499.00
2023-04-02T03:36:28.790Z,98492.00
2023-04-02T03:39:04.065Z,98503.00
2023-04-02T03:42:04.889Z,98504.00
2023-04-02T03:44:48.080Z,98489.00
2023-04-02T03:47:36.398Z,98511.00
2023-04-02T03:50:37.312Z,98507.00
2023-04-02T03:53:05.593Z,98510.00
2023-04-02T03:55:43.151Z,98506.00
2023-04-02T03:58:24.173Z,98512.00
2023-04-02T04:01:26.256Z,98515.00
2023-04-02T04:04:05.817Z,98512.00
2023-04-02T04:06:35.558Z,98517.00
2023-04-02T04:09:09.352Z,98516.00
2023-04-02T04:11:45.791Z,98523.00
2023-04-02T04:14:37.530Z,98521.00
2023-04-02T04:17:16.077Z,98530.00
2023-04-02T04:20:14.898Z,98535.00
2023-04-02T04:22:41.977Z,98531.00
2023-04-02T04:25:29.872Z,98541.00
2023-04-02T04:28:58.529Z,98541.00
2023-04-02T04:31:41.917Z,98548.00
2023-04-02T04:34:21.706Z,98546.00
2023-04-02T04:36:57.145Z,98549.00
2023-04-02T04:39:36.592Z,98551.00
2023-04-02T04:42:06.007Z,98554.00
2023-04-02T04:45:08.070Z,98560.00
2023-04-02T04:47:59.149Z,98561.00
2023-04-02T04:50:38.666Z,98564.00
2023-04-02T04:53:13.124Z,98571.00
2023-04-02T04:55:44.421Z,98571.00
2023-04-02T04:58:42.145Z,98578.00
2023-04-02T05:01:45.885Z,98583.00
2023-04-02T05:04:30.942Z,98587.00
2023-04-02T05:07:21.948Z,98584.00
2023-04-02T05:09:56.894Z,98579.00
2023-04-02T05:12:42.119Z,98586.00
2023-04-02T05:16:11.062Z,98597.00
2023-04-02T05:18:51.063Z,98590.00
2023-04-02T05:21:42.437Z,98595.00
2023-04-02T05:24:28.095Z,98596.00
2023-04-02T05:27:03.423Z,98599.00
2023-04-02T05:29:38.217Z,98605.00
2023-04-02T05:32:23.087Z,98602.00
2023-04-02T05:34:55.923Z,98608.00
2023-04-02T05:37:29.537Z,98624.00
2023-04-02T05:40:06.447Z,98603.00
2023-04-02T05:42:38.078Z,98614.00
2023-04-02T05:45:27.177Z,98616.00
2023-04-02T05:48:02.106Z,98621.00
2023-04-02T05:50:40.353Z,98628.00
2023-04-02T05:53:26.297Z,98622.00
2023-04-02T05:56:17.572Z,98626.00
2023-04-02T05:59:03.997Z,98637.00
2023-04-02T06:01:51.883Z,98637.00
2023-04-02T06:04:42.309Z,98639.00
2023-04-02T06:07:24.034Z,98645.00
2023-04-02T06:10:11.928Z,98655.00
2023-04-02T06:12:42.000Z,98656.00
2023-04-02T06:15:21.561Z,98653.00
2023-04-02T06:17:59.399Z,98649.00
2023-04-02T06:20:26.949Z,98661.00
2023-04-02T06:23:03.552Z,98664.00
2023-04-02T06:25:54.813Z,98666.00
2023-04-02T06:28:30.742Z,98661.00
2023-04-02T06:31:07.583Z,98666.00
2023-04-02T06:33:34.617Z,98666.00
2023-04-02T06:36:03.934Z,98668.00
2023-04-02T06:38:32.701Z,98668.00
2023-04-02T06:41:19.557Z,98675.00
2023-04-02T06:43:57.551Z,98679.00
2023-04-02T06:46:55.055Z,98684.00
2023-04-02T06:49:47.019Z,98685.00
2023-04-02T06:52:35.047Z,98691.00
2023-04-02T06:55:21.317Z,98705.00
2023-04-02T06:57:48.778Z,98692.00
2023-04-02T07:00:33.147Z,98696.00
2023-04-02T07:03:05.567Z,98703.00
2023-04-02T07:05:32.562Z,98704.00
2023-04-02T07:07:59.520Z,98708.00
2023-04-02T07:10:27.075Z,98707.00
2023-04-02T07:12:53.822Z,98706.00
2023-04-02T07:15:21.307Z,98717.00
2023-04-02T07:17:48.594Z,98716.00
2023-04-02T07:20:26.723Z,98724.00
2023-04-02T07:22:54.283Z,98720.00
2023-04-02T07:25:21.716Z,98724.00
2023-04-02T07:27:49.027Z,98725.00
2023-04-02T07:30:16.267Z,98729.00
2023-04-02T07:32:43.252Z,98733.00
2023-04-02T07:35:11.090Z,98743.00
2023-04-02T07:37:38.742Z,98743.00
2023-04-02T07:40:09.157Z,98746.00
2023-04-02T07:42:36.284Z,98736.00
2023-04-02T07:45:05.897Z,98743.00
2023-04-02T07:47:33.151Z,98751.00
2023-04-02T07:49:59.998Z,98741.00
2023-04-02T07:52:26.880Z,98733.00
2023-04-02T07:54:53.779Z,98748.00
2023-04-02T07:57:20.794Z,98756.00
2023-04-02T07:59:47.681Z,98757.00
2023-04-02T08:02:24.205Z,98755.00
2023-04-02T08:04:51.761Z,98753.00
2023-04-02T08:07:19.187Z,98755.00
2023-04-02T08:09:46.063Z,98765.00
2023-04-02T08:12:14.760Z,98770.00
2023-04-02T08:14:41.659Z,98770.00
2023-04-02T08:17:08.518Z,98766.00
2023-04-02T08:19:44.614Z,98768.00
2023-04-02T08:22:15.362Z,98768.00
2023-04-02T08:24:42.201Z,98773.00
2023-04-02T08:27:15.144Z,98784.00
2023-04-02T08:29:41.949Z,98791.00
2023-04-02T08:32:12.402Z,98797.00
2023-04-02T08:34:39.287Z,98800.00
2023-04-02T08:37:06.614Z,98799.00
2023-04-02T08:39:35.167Z,98807.00
2023-04-02T08:42:19.474Z,98804.00
2023-04-02T08:45:25.443Z,98811.00
2023-04-02T08:47:57.658Z,98819.00
2023-04-02T08:50:28.747Z,98818.00
2023-04-02T08:52:56.999Z,98815.00
2023-04-02T08:55:43.038Z,98824.00
2023-04-02T08:58:31.066Z,98828.00
2023-04-02T09:01:04.322Z,98827.00
2023-04-02T09:03:39.958Z,98824.00
2023-04-02T09:06:14.283Z,98831.00
2023-04-02T09:08:46.261Z,98832.00
2023-04-02T09:11:41.658Z,98829.00
2023-04-02T09:14:41.624Z,98837.00
2023-04-02T09:17:24.522Z,98832.00
2023-04-02T09:20:19.572Z,98829.00
2023-04-02T09:22:53.621Z,98834.00
2023-04-02T09:25:28.067Z,98838.00
2023-04-02T09:27:58.324Z,98847.00
2023-04-02T09:30:49.199Z,98849.00
2023-04-02T09:33:16.271Z,98845.00
2023-04-02T09:35:57.816Z,98843.00
2023-04-02T09:38:32.891Z,98847.00
2023-04-02T09:41:14.425Z,98849.00
2023-04-02T09:43:41.437Z,98859.00
2023-04-02T09:46:23.547Z,98858.00
2023-04-02T09:48:58.419Z,98863.00
2023-04-02T09:51:34.159Z,98867.00
2023-04-02T09:54:04.021Z,98861.00
2023-04-02T09:56:37.307Z,98875.00
2023-04-02T09:59:15.384Z,98874.00
2023-04-02T10:01:47.974Z,98872.00
2023-04-02T10:04:49.595Z,98875.00
2023-04-02T10:07:39.760Z,98870.00
2023-04-02T10:10:33.571Z,98874.00
2023-04-02T10:13:15.575Z,98887.00
2023-04-02T10:16:16.378Z,98888.00
2023-04-02T10:19:09.636Z,98880.00
2023-04-02T10:22:02.833Z,98889.00
2023-04-02T10:28:45.844Z,98895.00
2023-04-02T10:31:36.498Z,98894.00
2023-04-02T10:34:56.518Z,98883.00
2023-04-02T10:38:24.406Z,98903.00
2023-04-02T10:41:32.201Z,98904.00
2023-04-02T10:44:24.192Z,98909.00
2023-04-02T10:47:23.070Z,98913.00
2023-04-02T10:50:04.656Z,98914.00
2023-04-02T10:52:45.925Z,98918.00
2023-04-02T10:55:22.234Z,98920.00
2023-04-02T10:57:50.651Z,98921.00
2023-04-02T11:00:20.531Z,98926.00
2023-04-02T11:03:07.277Z,98923.00
2023-04-02T11:05:58.211Z,98926.00
2023-04-02T11:08:44.791Z,98925.00
2023-04-02T11:12:04.581Z,98935.00
2023-04-02T11:14:52.930Z,98935.00
2023-04-02T11:17:22.356Z,98935.00
2023-04-02T11:19:52.647Z,98944.00
2023-04-02T11:22:26.111Z,98946.00
2023-04-02T11:24:56.297Z,98937.00
2023-04-02T11:27:34.548Z,98950.00
2023-04-02T11:30:16.675Z,98954.00
2023-04-02T11:32:52.246Z,98942.00
2023-04-02T11:35:32.616Z,98952.00
2023-04-02T11:38:12.335Z,98957.00
2023-04-02T11:40:49.707Z,98960.00
2023-04-02T11:43:35.500Z,98957.00
2023-04-02T11:46:16.226Z,98962.00
2023-04-02T11:48:43.688Z,98964.00
2023-04-02T11:51:22.584Z,98956.00
2023-04-02T11:53:53.834Z,98966.00
2023-04-02T11:57:22.895Z,98968.00
2023-04-02T12:00:24.538Z,98970.00
2023-04-02T12:03:09.763Z,98970.00
2023-04-02T12:05:46.167Z,98971.00
2023-04-02T12:08:30.789Z,98975.00
2023-04-02T12:11:02.456Z,98974.00
2023-04-02T12:13:43.349Z,98978.00
2023-04-02T12:16:13.170Z,98981.00
2023-04-02T12:18:53.742Z,98989.00
2023-04-02T12:21:26.018Z,98988.00
2023-04-02T12:23:58.462Z,98977.00
2023-04-02T12:26:42.798Z,98986.00
2023-04-02T12:29:28.399Z,98989.00
2023-04-02T12:31:58.437Z,98991.00
2023-04-02T12:34:29.073Z,98999.00
2023-04-02T12:37:03.183Z,99001.00
2023-04-02T12:39:32.742Z,98999.00
2023-04-02T12:42:00.010Z,99010.00
2023-04-02T12:44:31.118Z,99001.00
2023-04-02T12:46:59.386Z,98993.00
2023-04-02T12:49:43.124Z,99001.00
2023-04-02T12:52:14.987Z,99000.00
2023-04-02T12:54:47.303Z,99004.00
2023-04-02T12:57:36.282Z,99004.00
2023-04-02T13:00:23.542Z,99002.00
2023-04-02T13:03:01.165Z,99005.00
2023-04-02T13:05:42.734Z,99002.00
2023-04-02T13:08:33.109Z,99003.00
2023-04-02T13:11:03.389Z,99005.00
2023-04-02T13:13:43.918Z,99004.00
2023-04-02T13:16:19.887Z,99014.00
2023-04-02T13:18:49.706Z,99015.00
2023-04-02T13:21:19.649Z,99015.00
2023-04-02T13:23:46.924Z,99010.00
2023-04-02T13:26:26.346Z,99013.00
2023-04-02T13:29:20.650Z,99015.00
2023-04-02T13:31:48.434Z,99019.00
2023-04-02T13:34:15.402Z,99009.00
2023-04-02T13:36:42.540Z,99014.00
2023-04-02T13:39:09.795Z,99024.00
2023-04-02T13:41:46.664Z,99019.00
2023-04-02T13:44:24.572Z,99020.00
2023-04-02T13:47:04.473Z,99026.00
2023-04-02T13:49:32.227Z,99021.00
2023-04-02T13:52:05.038Z,99028.00
2023-04-02T13:54:54.156Z,99036.00
2023-04-02T13:57:21.574Z,99043.00
2023-04-02T13:59:48.478Z,99032.00
2023-04-02T14:02:31.835Z,99034.00
2023-04-02T14:05:47.245Z,99040.00
2023-04-02T14:08:51.716Z,99047.00
2023-04-02T14:11:35.979Z,99052.00
2023-04-02T14:15:02.053Z,99055.00
2023-04-02T14:18:19.911Z,99055.00
2023-04-02T14:21:06.487Z,99051.00
2023-04-02T14:23:57.638Z,99068.00
2023-04-02T14:26:44.316Z,99061.00
2023-04-02T14:29:51.221Z,99062.00
2023-04-02T14:32:43.716Z,99074.00
2023-04-02T14:35:28.948Z,99073.00
2023-04-02T14:38:25.084Z,99079.00
2023-04-02T14:41:08.662Z,99077.00
2023-04-02T14:44:02.152Z,99082.00
2023-04-02T14:49:26.304Z,99090.00
2023-04-02T14:52:04.519Z,99081.00
2023-04-02T14:54:51.794Z,99088.00
2023-04-02T14:57:26.536Z,99093.00
2023-04-02T15:00:09.739Z,99090.00
2023-04-02T15:02:54.460Z,99095.00
2023-04-02T15:05:47.849Z,99091.00
2023-04-02T15:08:48.298Z,99095.00
2023-04-02T15:11:39.488Z,99102.00
2023-04-02T15:14:28.510Z,99117.00
2023-04-02T15:17:10.421Z,99115.00
2023-04-02T15:19:37.504Z,99116.00
2023-04-02T15:22:42.450Z,99116.00
2023-04-02T15:25:41.328Z,99121.00
2023-04-02T15:28:26.759Z,99123.00
2023-04-02T15:30:59.729Z,99119.00
2023-04-02T15:33:41.694Z,99122.00
2023-04-02T15:36:29.675Z,99121.00
2023-04-02T15:39:15.402Z,99120.00
2023-04-02T15:42:16.464Z,99126.00
2023-04-02T15:44:59.900Z,99125.00
2023-04-02T15:47:44.379Z,99132.00
2023-04-02T15:50:44.779Z,99123.00
2023-04-02T15:53:57.257Z,99125.00
2023-04-02T15:57:08.993Z,99135.00
2023-04-02T16:00:09.128Z,99142.00
2023-04-02T16:02:58.482Z,99139.00
2023-04-02T16:05:43.570Z,99139.00
2023-04-02T16:08:26.242Z,99145.00
2023-04-02T16:10:53.322Z,99153.00
2023-04-02T16:13:38.323Z,99163.00
2023-04-02T16:16:33.255Z,99165.00
2023-04-02T16:19:31.827Z,99169.00
2023-04-02T16:22:07.039Z,99172.00
2023-04-02T16:24:34.002Z,99177.00
2023-04-02T16:27:35.834Z,99180.00
2023-04-02T16:30:20.909Z,99189.00
2023-04-02T16:33:28.594Z,99196.00
2023-04-02T16:37:11.328Z,99200.00
2023-04-02T16:40:36.274Z,99214.00
2023-04-02T16:43:40.418Z,99226.00
2023-04-02T16:46:39.781Z,99230.00
2023-04-02T16:49:24.762Z,99235.00
2023-04-02T16:52:15.417Z,99231.00
2023-04-02T16:54:48.511Z,99230.00
2023-04-02T16:57:34.417Z,99237.00
2023-04-02T17:00:33.329Z,99245.00
2023-04-02T17:03:24.927Z,99258.00
2023-04-02T17:06:01.018Z,99254.00
2023-04-02T17:08:38.736Z,99259.00
2023-04-02T17:11:23.330Z,99264.00
2023-04-02T17:14:15.806Z,99276.00
2023-04-02T17:16:44.867Z,99275.00
2023-04-02T17:19:16.126Z,99276.00
2023-04-02T17:21:48.977Z,99275.00
2023-04-02T17:24:33.513Z,99284.00
2023-04-02T17:27:12.329Z,99291.00
2023-04-02T17:29:44.969Z,99297.00
2023-04-02T17:32:33.635Z,99294.00
2023-04-02T17:35:22.754Z,99298.00
2023-04-02T17:38:40.174Z,99311.00
2023-04-02T17:41:21.313Z,99314.00
2023-04-02T17:43:55.667Z,99316.00
2023-04-02T17:46:43.368Z,99325.00
2023-04-02T17:49:51.331Z,99323.00
2023-04-02T17:52:53.426Z,99329.00
2023-04-02T17:55:40.823Z,99330.00
2023-04-02T17:58:58.448Z,99337.00
2023-04-02T18:02:21.442Z,99340.00
2023-04-02T18:05:12.804Z,99345.00
2023-04-02T18:07:58.293Z,99345.00
2023-04-02T18:10:38.311Z,99349.00
2023-04-02T18:13:36.197Z,99360.00
2023-04-02T18:16:18.069Z,99368.00
2023-04-02T18:19:12.591Z,99365.00
2023-04-02T18:21:53.936Z,99362.00
2023-04-02T18:24:42.718Z,99375.00
2023-04-02T18:27:49.488Z,99374.00
2023-04-02T18:30:36.792Z,99394.00
2023-04-02T18:33:20.616Z,99388.00
2023-04-02T18:36:17.026Z,99403.00
2023-04-02T18:39:01.315Z,99405.00
2023-04-02T18:41:56.342Z,99416.00
2023-04-02T18:44:55.997Z,99422.00
2023-04-02T18:47:41.622Z,99415.00
2023-04-02T18:50:34.323Z,99426.00
2023-04-02T18:53:19.090Z,99425.00
2023-04-02T18:55:54.194Z,99427.00
2023-04-02T18:58:41.041Z,99437.00
2023-04-02T19:01:14.353Z,99450.00
2023-04-02T19:03:58.697Z,99455.00
2023-04-02T19:06:47.107Z,99459.00
2023-04-02T19:09:24.531Z,99457.00
2023-04-02T19:11:53.078Z,99456.00
2023-04-02T19:14:23.151Z,99467.00
2023-04-02T19:17:17.314Z,99470.00
2023-04-02T19:20:11.420Z,99485.00
2023-04-02T19:23:34.537Z,99487.00
2023-04-02T19:26:08.596Z,99486.00
2023-04-02T19:28:57.298Z,99486.00
2023-04-02T19:31:47.776Z,99497.00
2023-04-02T19:34:42.991Z,99505.00
2023-04-02T19:37:39.029Z,99499.00
2023-04-02T19:40:30.653Z,99512.00
2023-04-02T19:42:58.432Z,99513.00
2023-04-02T19:45:40.432Z,99527.00
2023-04-02T19:48:30.782Z,99513.00
2023-04-02T19:50:57.937Z,99522.00
2023-04-02T19:53:24.798Z,99525.00
2023-04-02T19:55:51.739Z,99524.00
2023-04-02T19:58:27.877Z,99531.00
2023-04-02T20:00:56.157Z,99544.00
2023-04-02T20:03:23.323Z,99542.00
2023-04-02T20:05:51.151Z,99550.00
2023-04-02T20:08:18.369Z,99551.00
2023-04-02T20:10:45.721Z,99567.00
2023-04-02T20:13:12.610Z,99550.00
2023-04-02T20:15:41.182Z,99562.00
2023-04-02T20:18:10.348Z,99565.00
2023-04-02T20:20:39.021Z,99561.00
2023-04-02T20:23:05.907Z,99566.00
2023-04-02T20:25:32.722Z,99575.00
2023-04-02T20:28:00.975Z,99575.00
2023-04-02T20:30:27.779Z,99574.00
2023-04-02T20:32:55.586Z,99574.00
2023-04-02T20:35:22.565Z,99588.00
2023-04-02T20:37:49.758Z,99578.00
2023-04-02T20:40:16.733Z,99579.00
2023-04-02T20:42:43.526Z,99590.00
2023-04-02T20:45:11.017Z,99587.00
2023-04-02T20:47:37.879Z,99603.00
2023-04-02T20:50:05.557Z,99610.00
2023-04-02T20:52:33.347Z,99600.00
2023-04-02T20:55:00.411Z,99608.00
2023-04-02T20:57:30.432Z,99600.00
2023-04-02T20:59:58.881Z,99609.00
2023-04-02T21:02:25.803Z,99612.00
2023-04-02T21:04:52.759Z,99613.00
2023-04-02T21:07:19.630Z,99618.00
2023-04-02T21:09:46.502Z,99620.00
2023-04-02T21:12:13.341Z,99630.00
2023-04-02T21:14:40.490Z,99627.00
2023-04-02T21:17:08.724Z,99626.00
2023-04-02T21:19:35.962Z,99623.00
2023-04-02T21:22:03.408Z,99629.00
2023-04-02T21:24:30.275Z,99631.00
2023-04-02T21:26:57.084Z,99633.00
2023-04-02T21:29:23.981Z,99631.00
2023-04-02T21:31:50.990Z,99635.00
2023-04-02T21:34:17.896Z,99640.00
2023-04-02T21:36:48.351Z,99635.00
2023-04-02T21:39:23.715Z,99636.00
2023-04-02T21:41:53.175Z,99638.00
2023-04-02T21:44:22.969Z,99643.00
2023-04-02T21:46:52.963Z,99643.00
2023-04-02T21:49:22.888Z,99644.00
2023-04-02T21:51:51.591Z,99639.00
2023-04-02T21:54:18.976Z,99648.00
2023-04-02T21:56:47.069Z,99641.00
2023-04-02T21:59:16.799Z,99648.00
2023-04-02T22:01:50.570Z,99647.00
2023-04-02T22:04:24.720Z,99650.00
2023-04-02T22:06:53.221Z,99661.00
2023-04-02T22:09:24.095Z,99663.00
2023-04-02T22:11:56.084Z,99662.00
2023-04-02T22:14:23.404Z,99661.00
2023-04-02T22:16:50.837Z,99663.00
2023-04-02T22:19:17.744Z,99665.00
2023-04-02T22:21:45.867Z,99674.00
2023-04-02T22:24:24.990Z,99671.00
2023-04-02T22:26:52.213Z,99674.00
2023-04-02T22:29:19.204Z,99684.00
2023-04-02T22:31:46.187Z,99683.00
2023-04-02T22:34:13.456Z,99686.00
2023-04-02T22:36:41.191Z,99683.00
2023-04-02T22:39:10.375Z,99699.00
2023-04-02T22:41:37.365Z,99689.00
2023-04-02T22:44:04.641Z,99691.00
2023-04-02T22:46:31.690Z,99693.00
2023-04-02T22:48:59.156Z,99702.00
2023-04-02T22:51:27.953Z,99699.00
2023-04-02T22:53:56.450Z,99698.00
2023-04-02T22:56:28.741Z,99699.00
2023-04-02T22:58:55.752Z,99705.00
2023-04-02T23:01:32.772Z,99703.00
2023-04-02T23:03:59.990Z,99711.00
2023-04-02T23:06:27.946Z,99706.00
2023-04-02T23:08:55.404Z,99707.00
2023-04-02T23:11:27.560Z,99704.00
2023-04-02T23:13:57.787Z,99718.00
2023-04-02T23:16:27.993Z,99710.00
2023-04-02T23:18:56.460Z,99722.00
2023-04-02T23:21:24.794Z,99720.00
2023-04-02T23:23:51.956Z,99730.00
2023-04-02T23:26:23.081Z,99729.00
2023-04-02T23:28:51.294Z,99730.00
2023-04-02T23:31:22.035Z,99734.00
2023-04-02T23:33:50.549Z,99735.00
2023-04-02T23:36:31.462Z,99725.00
2023-04-02T23:39:02.095Z,99730.00
2023-04-02T23:41:30.724Z,99734.00
2023-04-02T23:43:59.223Z,99731.00
2023-04-02T23:46:26.395Z,99733.00
2023-04-02T23:48:54.191Z,99733.00
2023-04-02T23:51:21.693Z,99731.00
2023-04-02T23:53:50.092Z,99731.00
2023-04-02T23:56:19.271Z,99725.00
2023-04-02T23:58:46.255Z,99732.00
